createdAt,value
2023-05-18T03:51:33.855Z,11.08
2023-05-18T03:54:38.468Z,10.98
2023-05-18T03:57:42.190Z,10.95
2023-05-18T04:00:45.177Z,10.96
2023-05-18T04:03:48.199Z,10.96
2023-05-18T04:06:54.178Z,11.07
2023-05-18T04:09:57.498Z,11.00
2023-05-18T04:13:00.221Z,11.03
2023-05-18T04:16:03.643Z,11.01
2023-05-18T04:19:08.278Z,10.99
2023-05-18T04:22:11.771Z,10.95
2023-05-18T04:25:17.932Z,10.98
2023-05-18T04:28:20.804Z,11.03
2023-05-18T04:31:23.601Z,10.97
2023-05-18T04:34:31.443Z,10.93
2023-05-18T04:37:35.278Z,10.97
2023-05-18T04:40:42.651Z,11.13
2023-05-18T04:43:47.240Z,11.13
2023-05-18T04:46:52.690Z,11.15
2023-05-18T04:49:55.876Z,11.16
2023-05-18T04:53:02.257Z,11.29
2023-05-18T04:56:05.573Z,11.36
2023-05-18T04:59:09.520Z,11.36
2023-05-18T05:02:12.259Z,11.50
2023-05-18T05:05:18.639Z,11.50
2023-05-18T05:08:21.680Z,11.58
2023-05-18T05:11:27.600Z,11.55
2023-05-18T05:14:30.188Z,11.61
2023-05-18T05:17:33.940Z,11.64
2023-05-18T05:20:36.629Z,11.53
2023-05-18T05:23:39.645Z,11.47
2023-05-18T05:26:42.302Z,11.51
2023-05-18T05:29:50.344Z,11.59
2023-05-18T05:32:53.500Z,11.50
2023-05-18T05:35:56.522Z,11.59
2023-05-18T05:38:59.390Z,11.56
2023-05-18T05:42:02.646Z,11.50
2023-05-18T05:45:06.888Z,11.56
2023-05-18T05:48:13.532Z,11.47
2023-05-18T05:51:17.261Z,11.40
2023-05-18T05:54:20.557Z,11.53
2023-05-18T05:57:25.960Z,11.67
2023-05-18T06:00:29.298Z,11.78
2023-05-18T06:03:35.140Z,11.97
2023-05-18T06:06:40.879Z,12.01
2023-05-18T06:09:44.303Z,12.05
2023-05-18T06:12:47.096Z,11.99
2023-05-18T06:15:50.687Z,12.11
2023-05-18T06:18:53.530Z,12.20
2023-05-18T06:21:56.786Z,12.08
2023-05-18T06:24:59.945Z,12.13
2023-05-18T06:28:03.720Z,12.15
2023-05-18T06:31:06.597Z,12.23
2023-05-18T06:34:09.611Z,12.27
2023-05-18T06:37:12.563Z,12.31
2023-05-18T06:40:15.416Z,12.29
2023-05-18T06:43:18.525Z,12.26
2023-05-18T06:46:26.624Z,12.19
2023-05-18T06:49:29.935Z,12.22
2023-05-18T06:52:32.907Z,12.25
2023-05-18T06:55:35.886Z,12.20
2023-05-18T06:58:40.287Z,12.04
2023-05-18T07:01:43.789Z,12.05
2023-05-18T07:04:49.094Z,12.13
2023-05-18T07:07:52.047Z,12.08
2023-05-18T07:10:58.047Z,12.15
2023-05-18T07:14:00.870Z,12.18
2023-05-18T07:17:04.664Z,12.25
2023-05-18T07:20:08.213Z,12.30
2023-05-18T07:23:11.213Z,12.49
2023-05-18T07:26:14.007Z,12.45
2023-05-18T07:29:19.400Z,12.56
2023-05-18T07:32:22.113Z,12.73
2023-05-18T07:35:26.506Z,12.70
2023-05-18T07:38:29.081Z,12.66
2023-05-18T07:41:32.085Z,12.65
2023-05-18T07:44:34.941Z,12.49
2023-05-18T07:47:37.835Z,12.63
2023-05-18T07:50:40.512Z,12.73
2023-05-18T07:53:45.937Z,12.73
2023-05-18T07:56:48.700Z,12.87
2023-05-18T07:59:53.760Z,13.14
2023-05-18T08:02:56.881Z,13.32
2023-05-18T08:06:00.842Z,13.30
2023-05-18T08:09:04.338Z,13.39
2023-05-18T08:12:07.685Z,13.42
2023-05-18T08:15:11.630Z,13.47
2023-05-18T08:18:14.677Z,13.52
2023-05-18T08:21:17.583Z,13.39
2023-05-18T08:24:20.882Z,13.66
2023-05-18T08:27:23.491Z,13.80
2023-05-18T08:30:26.892Z,13.70
2023-05-18T08:33:29.588Z,13.93
2023-05-18T08:36:36.922Z,14.22
2023-05-18T08:39:40.430Z,14.18
2023-05-18T08:42:59.101Z,14.24
2023-05-18T08:46:11.264Z,14.30
2023-05-18T08:49:17.192Z,14.39
2023-05-18T08:52:26.322Z,14.55
2023-05-18T08:55:31.044Z,14.54
2023-05-18T08:58:50.834Z,14.37
2023-05-18T09:01:55.311Z,14.53
2023-05-18T09:04:59.180Z,14.72
2023-05-18T09:08:03.614Z,14.95
2023-05-18T09:11:07.003Z,15.09
2023-05-18T09:14:10.703Z,15.29
2023-05-18T09:17:13.387Z,15.35
2023-05-18T09:20:17.443Z,15.61
2023-05-18T09:23:20.130Z,15.67
2023-05-18T09:26:23.148Z,15.86
2023-05-18T09:29:25.883Z,16.48
2023-05-18T09:32:29.708Z,16.35
2023-05-18T09:35:32.816Z,16.26
2023-05-18T09:38:44.043Z,16.24
2023-05-18T09:41:46.677Z,16.42
2023-05-18T09:44:49.568Z,16.62
2023-05-18T09:47:54.242Z,16.73
2023-05-18T09:51:00.010Z,16.86
2023-05-18T09:54:08.194Z,17.33
2023-05-18T09:57:24.540Z,17.47
2023-05-18T10:00:29.205Z,17.44
2023-05-18T10:03:41.694Z,17.42
2023-05-18T10:06:52.301Z,17.48
2023-05-18T10:10:03.439Z,17.72
2023-05-18T10:13:06.541Z,17.97
2023-05-18T10:19:30.182Z,17.56
2023-05-18T10:22:35.930Z,17.41
2023-05-18T10:25:40.070Z,17.46
2023-05-18T10:28:47.573Z,17.73
2023-05-18T10:31:51.923Z,17.46
2023-05-18T10:34:56.625Z,17.48
2023-05-18T10:38:01.758Z,17.21
2023-05-18T10:41:06.118Z,17.17
2023-05-18T10:44:09.814Z,17.19
2023-05-18T10:47:16.155Z,17.54
2023-05-18T10:50:20.822Z,17.77
2023-05-18T10:53:29.990Z,17.84
2023-05-18T10:56:36.936Z,17.83
2023-05-18T10:59:43.158Z,18.14
2023-05-18T11:02:47.507Z,18.73
2023-05-18T11:05:52.379Z,18.71
2023-05-18T11:08:55.390Z,18.36
2023-05-18T11:11:59.927Z,18.03
2023-05-18T11:15:03.990Z,17.58
2023-05-18T11:18:13.963Z,16.97
2023-05-18T11:21:29.080Z,16.58
2023-05-18T11:24:32.960Z,16.36
2023-05-18T11:27:35.767Z,16.16
2023-05-18T11:30:40.540Z,15.86
2023-05-18T11:33:43.275Z,15.78
2023-05-18T11:36:46.645Z,15.83
2023-05-18T11:40:00.427Z,15.63
2023-05-18T11:43:04.312Z,15.62
2023-05-18T11:46:18.494Z,15.75
2023-05-18T11:49:36.539Z,15.82
2023-05-18T11:52:47.271Z,15.87
2023-05-18T11:55:59.544Z,15.89
2023-05-18T11:59:13.179Z,15.93
2023-05-18T12:02:21.745Z,15.79
2023-05-18T12:05:24.917Z,15.78
2023-05-18T12:08:29.709Z,15.66
2023-05-18T12:11:33.433Z,15.49
2023-05-18T12:14:36.352Z,15.55
2023-05-18T12:17:42.760Z,15.71
2023-05-18T12:20:47.023Z,15.78
2023-05-18T12:23:49.987Z,15.63
2023-05-18T12:26:52.814Z,15.60
2023-05-18T12:29:55.942Z,15.60
2023-05-18T12:32:59.841Z,15.71
2023-05-18T12:36:02.773Z,15.74
2023-05-18T12:39:06.079Z,15.98
2023-05-18T12:42:15.677Z,16.44
2023-05-18T12:45:18.901Z,17.10
2023-05-18T12:48:26.492Z,17.59
2023-05-18T12:51:36.432Z,17.83
2023-05-18T12:55:00.077Z,17.81
2023-05-18T12:58:15.842Z,17.50
2023-05-18T13:01:18.780Z,17.37
2023-05-18T13:04:22.572Z,17.21
2023-05-18T13:07:26.709Z,17.05
2023-05-18T13:10:33.062Z,17.01
2023-05-18T13:13:36.063Z,17.19
2023-05-18T13:16:44.669Z,17.26
2023-05-18T13:19:47.762Z,17.46
2023-05-18T13:22:51.630Z,17.49
2023-05-18T13:25:57.414Z,17.43
2023-05-18T13:29:01.234Z,17.28
2023-05-18T13:32:04.602Z,17.20
2023-05-18T13:35:07.727Z,17.02
2023-05-18T13:38:11.761Z,16.93
2023-05-18T13:41:15.280Z,16.78
2023-05-18T13:44:18.705Z,16.64
2023-05-18T13:47:21.399Z,16.49
2023-05-18T13:50:26.065Z,16.13
2023-05-18T13:53:29.028Z,16.00
2023-05-18T13:56:32.194Z,16.11
2023-05-18T13:59:36.810Z,16.35
2023-05-18T14:02:40.922Z,16.41
2023-05-18T14:05:44.181Z,16.58
2023-05-18T14:08:46.782Z,16.79
2023-05-18T14:11:51.136Z,16.97
2023-05-18T14:14:55.813Z,16.96
2023-05-18T14:17:58.881Z,16.96
2023-05-18T14:21:03.537Z,16.96
2023-05-18T14:24:08.379Z,16.82
2023-05-18T14:27:11.117Z,16.80
2023-05-18T14:30:14.294Z,16.80
2023-05-18T14:33:17.036Z,16.57
2023-05-18T14:36:22.067Z,16.41
2023-05-18T14:39:25.205Z,16.13
2023-05-18T14:42:28.088Z,15.97
2023-05-18T14:45:30.711Z,15.73
2023-05-18T14:48:33.588Z,15.77
2023-05-18T14:51:36.236Z,15.96
2023-05-18T14:54:40.366Z,16.19
2023-05-18T14:57:42.922Z,16.17
2023-05-18T15:00:48.184Z,16.11
2023-05-18T15:03:51.199Z,15.91
2023-05-18T15:06:53.994Z,15.78
2023-05-18T15:09:56.705Z,15.70
2023-05-18T15:12:59.747Z,15.52
2023-05-18T15:16:02.841Z,15.46
2023-05-18T15:19:06.127Z,15.43
2023-05-18T15:22:08.842Z,15.49
2023-05-18T15:25:11.888Z,15.56
2023-05-18T15:28:14.576Z,15.64
2023-05-18T15:31:18.216Z,15.78
2023-05-18T15:34:21.099Z,15.84
2023-05-18T15:37:24.094Z,15.83
2023-05-18T15:40:26.755Z,15.89
2023-05-18T15:43:30.532Z,15.84
2023-05-18T15:46:35.570Z,15.79
2023-05-18T15:49:38.583Z,15.87
2023-05-18T15:52:42.059Z,16.12
2023-05-18T15:55:45.019Z,16.26
2023-05-18T15:58:48.085Z,16.22
2023-05-18T16:01:51.151Z,16.26
2023-05-18T16:04:54.177Z,16.33
2023-05-18T16:07:56.734Z,16.40
